Sunday, January 21, 2018, 3:43 PM EST
Back to Local

KMGW, Morgantown Muni-hart Field

Location: Morgantown, WV, United States Lat: 39.65
Local Time: 3:43 PM EST (20:43 GMT) Lon: -79.917
Time Zone: US/Eastern Elev: 1246 ft

Show me the last for .
Show Decoded

2018-01-21 14:53 METAR KMGW 211953Z 19006KT 10SM OVC023 12/06 A3010 RMK AO2 SLP194 T01170061 =
2018-01-21 13:53 METAR KMGW 211853Z 22005KT 10SM BKN024 OVC070 11/06 A3011 RMK AO2 SLP200
                 T01110061 =
2018-01-21 12:53 METAR KMGW 211753Z 21007KT 10SM OVC027 11/06 A3014 RMK AO2 RAB11E21 SLP208 P0000
                 60000 T01060056 10106 20072 58012 =
2018-01-21 12:19 METAR KMGW 211719Z 21004KT 10SM -RA OVC029 10/06 A3015 RMK AO2 RAB11 P0000
                 T01000056 =
2018-01-21 11:53 METAR KMGW 211653Z 21006KT 10SM OVC031 11/06 A3016 RMK AO2 SLP216 T01060056 =
2018-01-21 11:50 METAR KMGW 211650Z 22006KT 10SM OVC031 11/06 A3016 RMK AO2 =
2018-01-21 11:10 METAR KMGW 211610Z 20006KT 10SM BKN029 OVC060 10/06 A3017 RMK AO2 T01000056 =
2018-01-21 10:53 METAR KMGW 211553Z 20006KT 10SM SCT033 OVC060 09/06 A3018 RMK AO2 SLP222
                 T00940056 =
2018-01-21 10:16 METAR KMGW 211516Z 20004KT 10SM SCT020 BKN031 OVC065 09/06 A3018 RMK AO2
                 T00890056 =
2018-01-21 09:53 METAR KMGW 211453Z 20005KT 10SM OVC019 08/06 A3018 RMK AO2 SLP224 T00830056
                 53006 =
2018-01-21 09:07 METAR KMGW 211407Z 19004KT 10SM BKN019 OVC060 08/06 A3017 RMK AO2 T00780056 =
2018-01-21 08:53 METAR KMGW 211353Z 20004KT 10SM SCT021 OVC060 08/06 A3017 RMK AO2 SLP223
                 T00780056 =
2018-01-21 08:46 METAR KMGW 211346Z 20005KT 10SM SCT023 OVC060 08/06 A3017 RMK AO2 T00780056 =
2018-01-21 08:10 METAR KMGW 211310Z 20004KT 10SM OVC029 08/06 A3017 RMK AO2 T00780056 =
2018-01-21 07:53 METAR KMGW 211253Z 20004KT 10SM FEW023 OVC031 08/06 A3016 RMK AO2 SLP220
                 T00780056 =
2018-01-21 07:49 METAR KMGW 211249Z 20005KT 10SM SCT024 OVC031 07/06 A3016 RMK AO2 =
2018-01-21 06:53 METAR KMGW 211153Z 21005KT 10SM BKN026 OVC033 07/06 A3016 RMK AO2 SLP217 60000
                 T00720056 10078 20061 55000 =
2018-01-21 05:53 METAR KMGW 211053Z AUTO 00000KT 9SM FEW028 BKN037 OVC060 06/06 A3015 RMK AO2
                 SLP214 T00610056 =
2018-01-21 04:53 METAR KMGW 210953Z AUTO 19004KT 3SM BR OVC030 06/05 A3015 RMK AO2 RAB0855E09
                 SLP214 P0000 T00610050 =
2018-01-21 04:35 METAR KMGW 210935Z AUTO 19003KT 2 1/2SM BR FEW022 OVC031 06/05 A3015 RMK AO2
                 RAB0855E09 P0000 T00610050 =
2018-01-21 04:19 METAR KMGW 210919Z AUTO 20004KT 5SM BR FEW004 SCT013 OVC024 07/05 A3015 RMK AO2
                 RAB0855E09 P0000 T00670050 =
2018-01-21 04:11 METAR KMGW 210911Z AUTO 19004KT 4SM BR FEW003 BKN013 OVC023 07/05 A3015 RMK AO2
                 RAB0855E09 P0000 T00670050 =
2018-01-21 04:03 METAR KMGW 210903Z AUTO 22004KT 2 1/2SM -RA BR FEW003 BKN013 OVC025 07/05 A3016
                 RMK AO2 RAB0855 P0000 T00670050 =
2018-01-21 03:53 METAR KMGW 210853Z AUTO 22004KT 4SM BR FEW007 OVC015 07/04 A3016 RMK AO2
                 RAB31E41 SLP216 P0000 60000 T00670044 53001 =
2018-01-21 03:43 METAR KMGW 210843Z AUTO 21005KT 8SM FEW009 OVC015 07/04 A3016 RMK AO2 RAB31E41
                 P0000 T00670044 =
2018-01-21 03:29 METAR KMGW 210829Z AUTO VRB05KT 9SM OVC015 07/04 A3015 RMK AO2 T00670044 =
2018-01-21 03:02 METAR KMGW 210802Z AUTO 22006KT 10SM OVC013 07/04 A3016 RMK AO2 T00720039 =
2018-01-21 02:53 METAR KMGW 210753Z AUTO 21007KT 10SM OVC015 07/03 A3016 RMK AO2 SLP216 T00720033
                 =
2018-01-21 01:53 METAR KMGW 210653Z AUTO 22006KT 10SM BKN019 OVC047 08/02 A3015 RMK AO2 SLP212
                 T00780022 =
2018-01-21 00:53 METAR KMGW 210553Z AUTO 22005KT 10SM BKN020 OVC025 08/02 A3016 RMK AO2 SLP215
                 T00780017 10078 20039 53001 =
2018-01-21 00:04 METAR KMGW 210504Z AUTO 22004KT 10SM BKN027 OVC044 07/01 A3015 RMK AO2 T00720011
                 =
2018-01-20 23:53 METAR KMGW 210453Z AUTO 21004KT 10SM SCT027 BKN041 OVC049 07/01 A3014 RMK AO2
                 SLP212 T00720011 401060033 =
2018-01-20 23:32 METAR KMGW 210432Z AUTO 21004KT 10SM SCT027 OVC039 07/01 A3014 RMK AO2 T00720011
                 =
2018-01-20 22:53 METAR KMGW 210353Z 22004KT 10SM OVC025 07/01 A3015 RMK AO2 SLP213 T00720011 =
2018-01-20 22:00 METAR KMGW 210300Z 21007KT 10SM BKN026 07/01 A3015 RMK AO2 T00720006 =
2018-01-20 21:53 METAR KMGW 210253Z 21005KT 10SM SCT028 07/00 A3015 RMK AO2 SLP216 T00670000
                 53015 =
2018-01-20 20:53 METAR KMGW 210153Z 20005KT 10SM CLR 06/M01 A3012 RMK AO2 SLP208 T00561006 =
2018-01-20 19:53 METAR KMGW 210053Z 20005KT 10SM CLR 04/M01 A3011 RMK AO2 SLP204 T00441011 =
2018-01-20 18:53 METAR KMGW 202353Z 20004KT 10SM CLR 07/M01 A3011 RMK AO2 SLP201 T00721011 10106
                 20072 51023 =
2018-01-20 17:53 METAR KMGW 202253Z 23004KT 10SM CLR 09/M01 A3009 RMK AO2 SLP196 T00891011 =
2018-01-20 16:53 METAR KMGW 202153Z 22008KT 10SM CLR 10/M01 A3006 RMK AO2 SLP185 T01001006 =
2018-01-20 15:53 METAR KMGW 202053Z 22007KT 10SM CLR 10/00 A3004 RMK AO2 SLP177 T01000000 55003 =

Support USWX by starting your Amazon purchase here.